Flight Track Log - Related Links

Times and Time Zones

All times are in EDT time to prevent confusion due to time zone crossing. See the GJS3618 flight status page for this flight to view local times or setup timezone preferences in your user account.

Time Position Orientation Groundspeed Altitude Reporting Facility
EDT Latitude Longitude Course Direction KTS MPH feet Rate Location/Type
Thu 09:42:12 PM 39.8833 -104.6167 90° East 171 197 6,200  Level Denver TRACON
Thu 09:43:06 PM 39.8833 -104.5500 90° East 213 245 7,900 1,326 Climbing Denver TRACON
Thu 09:45:22 PM 39.9311 -104.3333 74° East 297 342 10,400 1,394 Climbing Denver Center
Thu 09:46:24 PM 39.9600 -104.2050 74° East 344 396 12,500 2,274 Climbing Denver Center
Thu 09:47:26 PM 39.9800 -104.0806 78° East 349 402 15,100 2,129 Climbing Denver Center
Thu 09:48:28 PM 39.9928 -103.9519 83° East 358 412 16,900 1,452 Climbing Denver Center
Thu 09:49:30 PM 40.0150 -103.8083 79° East 376 433 18,100 1,258 Climbing Denver Center
Thu 09:50:32 PM 40.0367 -103.6722 78° East 370 426 19,500 1,403 Climbing Denver Center
Thu 09:51:34 PM 40.0600 -103.5308 78° East 392 451 21,000 1,355 Climbing Denver Center
Thu 09:52:36 PM 40.0833 -103.3864 78° East 401 461 22,300 1,210 Climbing Denver Center
Thu 09:53:38 PM 40.1078 -103.2392 78° East 410 472 23,500 1,113 Climbing Denver Center
Thu 09:54:40 PM 40.1311 -103.0897 78° East 416 479 24,600 971 Climbing Denver Center
Thu 09:55:54 PM 40.1547 -102.9375 78° East 422 486 25,700 1,139 Climbing Denver Center
Thu 09:56:57 PM 40.2014 -102.7439 72° East 416 479 27,200 1,296 Climbing Denver Center
Thu 09:57:59 PM 40.2358 -102.5978 73° East 417 480 28,400 1,065 Climbing Denver Center
Thu 09:59:01 PM 40.2692 -102.4592 72° East 419 482 29,400 1,016 Climbing Denver Center
Thu 10:00:03 PM 40.3078 -102.2975 73° East 418 481 30,500 968 Climbing Denver Center
Thu 10:01:05 PM 40.3392 -102.1589 73° East 415 478 31,400 871 Climbing Denver Center
Thu 10:02:07 PM 40.3772 -101.9950 73° East 421 484 32,300 823 Climbing Denver Center
Thu 10:03:09 PM 40.4106 -101.8553 73° East 422 486 33,100 774 Climbing Denver Center
Thu 10:04:11 PM 40.4478 -101.6908 73° East 422 486 33,900 578 Climbing Denver Center
Thu 10:05:24 PM 40.4808 -101.5483 73° East 425 489 34,400 529 Climbing Denver Center
Thu 10:06:27 PM 40.5250 -101.3528 73° East 437 503 35,100 528 Climbing Denver Center
Thu 10:07:29 PM 40.5578 -101.2058 74° East 438 504 35,500 488 Climbing Denver Center
Thu 10:08:30 PM 40.5972 -101.0322 73° East 445 512 36,100 537 Climbing Denver Center
Thu 10:09:32 PM 40.6297 -100.8825 74° East 447 514 36,600 435 Climbing Denver Center
Thu 10:10:34 PM 40.6681 -100.7081 74° East 451 519 37,000 194 Climbing Denver Center
Thu 10:11:36 PM 40.7069 -100.5314 74° East 457 526 37,000  Level Denver Center
Thu 10:12:38 PM 40.7397 -100.3758 74° East 463 533 37,000  Level Denver Center
Thu 10:13:39 PM 40.7786 -100.1936 74° East 464 534 37,000  Level Denver Center
Thu 10:14:41 PM 40.8122 -100.0350 74° East 469 540 37,000  Level Denver Center
Thu 10:15:43 PM 40.8464 -99.8742 74° East 474 545 37,000  Level Denver Center
Thu 10:16:44 PM 40.8844 -99.6981 74° East 473 544 37,000  Level Denver Center
Thu 10:17:46 PM 40.9125 -99.5628 75° East 477 549 37,000  Level Denver Center
Thu 10:18:48 PM 40.9536 -99.3614 75° East 473 544 37,000  Level Denver Center
Thu 10:19:49 PM 40.9883 -99.1914 75° East 478 550 37,000  Level Denver Center
Thu 10:20:51 PM 41.0294 -98.9864 75° East 477 549 37,000  Level Denver Center
Thu 10:21:53 PM 41.0619 -98.8239 75° East 477 549 37,000  Level Denver Center
Thu 10:23:06 PM 41.0950 -98.6594 75° East 478 550 37,000  Level Denver Center
Thu 10:24:08 PM 41.1347 -98.4575 75° East 477 549 37,000  Level Denver Center
Thu 10:25:09 PM 41.1744 -98.2528 75° East 479 551 37,000  Level Minneapolis Center
Thu 10:26:10 PM 41.2067 -98.0828 76° East 477 549 37,000  Level Minneapolis Center
Thu 10:27:11 PM 41.2397 -97.9111 76° East 479 551 37,000  Level Minneapolis Center
Thu 10:28:13 PM 41.2733 -97.7381 75° East 482 555 37,000  Level Minneapolis Center
Thu 10:29:14 PM 41.3053 -97.5647 76° East 483 556 37,000  Level Minneapolis Center
Thu 10:30:15 PM 41.3394 -97.3828 76° East 488 562 37,000  Level Minneapolis Center
Thu 10:31:16 PM 41.3722 -97.2083 76° East 488 562 37,000  Level Minneapolis Center
Thu 10:32:17 PM 41.4042 -97.0317 76° East 490 564 37,000  Level Minneapolis Center
Thu 10:33:18 PM 41.4358 -96.8561 76° East 489 563 37,000  Level Minneapolis Center
Thu 10:34:19 PM 41.4689 -96.6772 76° East 494 568 37,000  Level Minneapolis Center
Thu 10:35:20 PM 41.5006 -96.4983 77° East 494 568 37,000  Level Minneapolis Center
Thu 10:36:22 PM 41.5306 -96.3300 77° East 489 563 37,000  Level Minneapolis Center
Thu 10:37:23 PM 41.5594 -96.1511 78° East 493 567 37,000  Level Minneapolis Center
Thu 10:38:24 PM 41.5969 -95.9394 77° East 489 563 37,000  Level Minneapolis Center
Thu 10:39:25 PM 41.6281 -95.7611 77° East 493 567 37,000  Level Minneapolis Center
Thu 10:40:26 PM 41.6553 -95.6019 77° East 489 563 37,000  Level Minneapolis Center
Thu 10:41:28 PM 41.6858 -95.4233 77° East 490 564 37,000  Level Minneapolis Center
Thu 10:42:29 PM 41.7150 -95.2436 78° East 493 567 37,000  Level Minneapolis Center
Thu 10:43:30 PM 41.7447 -95.0631 78° East 495 570 37,000  Level Minneapolis Center
Thu 10:44:31 PM 41.7789 -94.8494 78° East 492 566 37,000  Level Minneapolis Center
Thu 10:45:32 PM 41.8067 -94.6719 78° East 488 562 37,000  Level Minneapolis Center
Thu 10:46:33 PM 41.8342 -94.4950 78° East 487 560 37,000  Level Minneapolis Center
Thu 10:47:35 PM 41.8628 -94.3197 78° East 483 556 37,000  Level Minneapolis Center
Thu 10:48:36 PM 41.8894 -94.1439 78° East 483 556 37,000  Level Minneapolis Center
Thu 10:49:37 PM 41.9164 -93.9675 78° East 484 557 37,000  Level Minneapolis Center
Thu 10:50:38 PM 41.9461 -93.7764 78° East 486 559 37,000  Level Minneapolis Center
Thu 10:51:39 PM 41.9731 -93.6006 78° East 486 559 37,000  Level Minneapolis Center
Thu 10:52:40 PM 41.9992 -93.4228 79° East 488 562 37,000  Level Minneapolis Center
Thu 10:53:41 PM 42.0253 -93.2481 79° East 483 556 37,000  Level Minneapolis Center
Thu 10:54:43 PM 42.0511 -93.0697 79° East 487 560 37,000  Level Minneapolis Center
Thu 10:55:44 PM 42.0756 -92.8944 79° East 484 557 37,000  Level Minneapolis Center
Thu 10:56:57 PM 42.1011 -92.7203 79° East 481 554 37,000  Level Minneapolis Center
Thu 10:57:58 PM 42.1306 -92.5103 79° East 480 552 37,000  Level Minneapolis Center
Thu 10:58:59 PM 42.1594 -92.3025 79° East 477 549 37,000  Level Minneapolis Center
Thu 11:00:01 PM 42.1822 -92.1297 80° East 475 547 37,000  Level Minneapolis Center
Thu 11:00:40 PM 42.1964 -92.0242 80° East 475 547 37,000  Level Chicago Center
Thu 11:01:42 PM 42.2186 -91.8522 80° East 474 545 37,000  Level Chicago Center
Thu 11:02:43 PM 42.2419 -91.6828 79° East 469 540 37,000  Level Chicago Center
Thu 11:03:44 PM 42.2692 -91.4758 80° East 474 545 37,000  Level Chicago Center
Thu 11:04:45 PM 42.2917 -91.3028 80° East 474 545 37,000  Level Chicago Center
Thu 11:05:46 PM 42.3133 -91.1297 80° East 476 548 37,000  Level Chicago Center
Thu 11:06:47 PM 42.3350 -90.9569 80° East 472 543 37,000  Level Chicago Center
Thu 11:07:48 PM 42.3572 -90.7819 80° East 477 549 37,000  Level Chicago Center
Thu 11:08:49 PM 42.3789 -90.6053 81° East 482 555 37,000  Level Chicago Center
Thu 11:09:50 PM 42.3994 -90.4300 81° East 479 551 37,000  Level Chicago Center
Thu 11:10:51 PM 42.4208 -90.2533 81° East 482 555 37,000  Level Chicago Center
Thu 11:11:52 PM 42.4444 -90.0419 81° East 481 554 37,000  Level Chicago Center
Thu 11:12:53 PM 42.4658 -89.8650 81° East 479 551 37,000  Level Chicago Center
Thu 11:13:54 PM 42.4858 -89.6850 81° East 482 555 37,000  Level Chicago Center
Thu 11:14:56 PM 42.5056 -89.5056 81° East 483 556 37,000  Level Chicago Center
Thu 11:15:57 PM 42.5256 -89.3242 81° East 487 560 37,000  Level Chicago Center
Thu 11:16:58 PM 42.5456 -89.1444 81° East 486 559 37,000  Level Chicago Center
Thu 11:17:59 PM 42.5647 -88.9633 82° East 488 562 37,000 -446 Level Chicago Center
Thu 11:18:59 PM 42.5842 -88.7817 82° East 490 564 36,100 -1,785 Descending Chicago Center
Thu 11:20:00 PM 42.6058 -88.5739 82° East 481 554 33,400 -2,262 Descending Chicago Center
Thu 11:21:01 PM 42.6242 -88.4017 82° East 466 536 31,500 -1,770 Descending Chicago Center
Thu 11:22:02 PM 42.6419 -88.2303 82° East 461 531 29,800 -1,672 Descending Chicago Center
Thu 11:23:03 PM 42.6589 -88.0583 82° East 461 531 28,100 -1,623 Descending Chicago Center
Thu 11:24:04 PM 42.6756 -87.8842 83° East 466 536 26,500 -1,525 Descending Chicago Center
Thu 11:25:05 PM 42.6922 -87.7144 82° East 457 526 25,000 -1,180 Descending Chicago Center
Thu 11:26:06 PM 42.7083 -87.5500 82° East 443 510 24,100 -492 Descending Chicago Center
Thu 11:27:07 PM 42.7242 -87.3747 83° East 429 494 24,000 -49 Descending Chicago Center
Thu 11:28:08 PM 42.7386 -87.2150 83° East 427 491 24,000 -295 Level Chicago Center
Thu 11:29:09 PM 42.7536 -87.0553 83° East 427 491 23,400 -1,587 Descending Chicago Center
Thu 11:30:09 PM 42.7681 -86.8978 83° East 423 487 20,800 -2,430 Descending Chicago Center
Thu 11:31:10 PM 42.7811 -86.7486 83° East 403 464 18,500 -2,164 Descending Chicago Center
Thu 11:32:11 PM 42.7933 -86.6050 83° East 387 445 16,400 -2,115 Descending Chicago Center
Thu 11:33:12 PM 42.8042 -86.4706 84° East 366 421 14,200 -2,016 Descending Chicago Center
Thu 11:34:13 PM 42.8150 -86.3461 83° East 333 383 12,300 -2,016 Descending Chicago Center
Thu 11:35:14 PM 42.8244 -86.2389 83° East 293 337 10,100 -2,066 Descending Chicago Center
Thu 11:36:15 PM 42.8319 -86.1403 84° East 269 310 8,100 -2,066 Descending Chicago Center
Thu 11:37:16 PM 42.8400 -86.0444 83° East 260 299 5,900 -2,066 Descending Chicago Center
Thu 11:38:17 PM 42.8517 -85.9406 81° East 239 275 3,900 -1,426 Descending Chicago Center
Thu 11:39:18 PM 42.8575 -85.8683 84° East 204 235 3,000 -446 Descending Chicago Center
Thu 11:40:18 PM 42.8622 -85.8014 84° East 183 211 3,000 -149 Level Chicago Center
Thu 11:41:19 PM 42.8669 -85.7317 85° East 184 212 2,700 -492 Descending Chicago Center
Thu 11:42:20 PM 42.8706 -85.6611 86° East 187 215 2,000 -541 Descending Chicago Center
Thu 11:43:21 PM 42.8681 -85.6028 93° East 167 192 1,600 -443 Descending Chicago Center
Thu 11:44:22 PM 42.8747 -85.5528 80° East 146 168 1,100 -344 Descending Chicago Center
Thu 11:45:23 PM 42.8806 -85.5014 81° East 144 166 900 -197 Descending Chicago Center
Thu 11:47:00 PM 42.8667 -85.5167 90° East  Level FlightAware Approximate

Login

Don't have an account? Register now (free) for customized features, flight alerts, and more!